Linda Moran — WDE4187 — position and weather

sailwx.info

Track history (hours):
 
Tides and Currents Weather Stations Pressure Air Temp Water Temp Dewpoint Dewpoint Depression Visibility Wind Speed Wind Dir Waves Ship Positions

Linda Moran

Owner: MORAN TOWING CORP., NEW CANAAN, CT. More information available from US FCC via Universal Licensing System and Coast Guard Vessel Documentation Center.

Last reported at 2014-Aug-09 03:08 UTC. Time now 2014-Oct-02 06:39 UTC.
Position N 29°23' W 094°53'.
Warning: this ship's position is 54 days out of date.

Length 156 m; draft 8.2 m.

Type: Towing. MMSI: 367349860.

Date/timePositionNaut miles runAvg speedWind from/ knotsBaromVisibWave heightAir tempDewpointWater temp
2014-Aug-09 03:08N 29°23' W 094°53'5 0.4
2014-Aug-08 13:33N 29°27' W 094°51'9 8.9
2014-Aug-08 12:33N 29°35' W 094°56'9 8.7
2014-Aug-08 11:33N 29°42' W 095°01'6 5.9
2014-Aug-08 10:33N 29°44' W 095°07'0 0.1
2014-Aug-08 09:29N 29°44' W 095°08'0 0.0
2014-Aug-08 08:32N 29°44' W 095°08'0 0.0
2014-Aug-08 07:32N 29°44' W 095°08'0 0.0
2014-Aug-08 06:32N 29°44' W 095°08'0 0.0
2014-Aug-08 05:32N 29°44' W 095°08'0 0.0
2014-Aug-08 04:32N 29°44' W 095°08'0 0.0
2014-Aug-08 03:32N 29°44' W 095°08'0 0.0
2014-Aug-08 02:32N 29°44' W 095°08'0 0.0
2014-Aug-08 01:32N 29°44' W 095°08'0 0.0
2014-Aug-08 00:26N 29°44' W 095°08'0 0.0
2014-Aug-07 23:32N 29°44' W 095°08'0 0.0
2014-Aug-07 22:32N 29°44' W 095°08'0 0.0
2014-Aug-07 21:32N 29°44' W 095°08'0 0.0
2014-Aug-07 20:32N 29°44' W 095°08'0 0.0
2014-Aug-07 19:32N 29°44' W 095°08'0 0.0
2014-Aug-07 18:32N 29°44' W 095°08'0 0.0
2014-Aug-07 17:32N 29°44' W 095°08'0 0.0
2014-Aug-07 16:32N 29°44' W 095°08'0 0.0
2014-Aug-07 15:32N 29°44' W 095°08'0 0.0
2014-Aug-07 14:32N 29°44' W 095°08'0 0.0
2014-Aug-07 13:32N 29°44' W 095°08'0 0.0
2014-Aug-07 12:32N 29°44' W 095°08'0 0.0
2014-Aug-07 11:26N 29°44' W 095°07'5 5.4
2014-Aug-07 10:33N 29°44' W 095°02'9 9.4
2014-Aug-07 09:33N 29°36' W 094°57'  
Track history (hours):
 
Tides and Currents Weather Stations Pressure Air Temp Water Temp Dewpoint Dewpoint Depression Visibility Wind Speed Wind Dir Waves Ship Positions

Linda Moran

Owner: MORAN TOWING CORP., NEW CANAAN, CT. More information available from US FCC via Universal Licensing System and Coast Guard Vessel Documentation Center.

Last reported at 2014-Aug-09 03:08 UTC. Time now 2014-Oct-02 06:39 UTC.
Position N 29°23' W 094°53'.
Warning: this ship's position is 54 days out of date.

Length 156 m; draft 8.2 m.

Type: Towing. MMSI: 367349860.

Date/timePositionNaut miles runAvg speedWind from/ knotsBaromVisibWave heightAir tempDewpointWater temp
2014-Aug-09 03:08N 29°23' W 094°53'5 0.4
2014-Aug-08 13:33N 29°27' W 094°51'9 8.9
2014-Aug-08 12:33N 29°35' W 094°56'9 8.7
2014-Aug-08 11:33N 29°42' W 095°01'6 5.9
2014-Aug-08 10:33N 29°44' W 095°07'0 0.1
2014-Aug-08 09:29N 29°44' W 095°08'0 0.0
2014-Aug-08 08:32N 29°44' W 095°08'0 0.0
2014-Aug-08 07:32N 29°44' W 095°08'0 0.0
2014-Aug-08 06:32N 29°44' W 095°08'0 0.0
2014-Aug-08 05:32N 29°44' W 095°08'0 0.0
2014-Aug-08 04:32N 29°44' W 095°08'0 0.0
2014-Aug-08 03:32N 29°44' W 095°08'0 0.0
2014-Aug-08 02:32N 29°44' W 095°08'0 0.0
2014-Aug-08 01:32N 29°44' W 095°08'0 0.0
2014-Aug-08 00:26N 29°44' W 095°08'0 0.0
2014-Aug-07 23:32N 29°44' W 095°08'0 0.0
2014-Aug-07 22:32N 29°44' W 095°08'0 0.0
2014-Aug-07 21:32N 29°44' W 095°08'0 0.0
2014-Aug-07 20:32N 29°44' W 095°08'0 0.0
2014-Aug-07 19:32N 29°44' W 095°08'0 0.0
2014-Aug-07 18:32N 29°44' W 095°08'0 0.0
2014-Aug-07 17:32N 29°44' W 095°08'0 0.0
2014-Aug-07 16:32N 29°44' W 095°08'0 0.0
2014-Aug-07 15:32N 29°44' W 095°08'0 0.0
2014-Aug-07 14:32N 29°44' W 095°08'0 0.0
2014-Aug-07 13:32N 29°44' W 095°08'0 0.0
2014-Aug-07 12:32N 29°44' W 095°08'0 0.0
2014-Aug-07 11:26N 29°44' W 095°07'5 5.4
2014-Aug-07 10:33N 29°44' W 095°02'9 9.4
2014-Aug-07 09:33N 29°36' W 094°57'  

Dump ship's entire track history